Aviation Digital Data Service (ADDS)

Output produced by METARs form (1645 UTC 20 January 2019)
found at http://www.aviationweather.gov/metar/data/
 
KXNA 201120Z 2012/2112 32005KT P6SM SCT250 
     FM201800 23006KT P6SM SKC 
     FM210000 11005KT P6SM SCT250